createdAt,value
2022-08-29T03:24:13.263Z,15.30
2022-08-29T03:26:40.096Z,15.20
2022-08-29T03:29:07.060Z,15.30
2022-08-29T03:31:35.732Z,15.20
2022-08-29T03:34:02.669Z,15.20
2022-08-29T03:36:29.538Z,15.20
2022-08-29T03:38:56.459Z,15.30
2022-08-29T03:41:24.792Z,15.20
2022-08-29T03:43:51.886Z,15.20
2022-08-29T03:46:18.926Z,15.40
2022-08-29T03:48:45.855Z,15.20
2022-08-29T03:51:12.735Z,15.10
2022-08-29T03:53:40.804Z,15.10
2022-08-29T03:56:08.096Z,15.10
2022-08-29T03:58:38.198Z,15.20
2022-08-29T04:01:05.449Z,15.10
2022-08-29T04:03:32.388Z,15.10
2022-08-29T04:05:59.479Z,15.00
2022-08-29T04:08:26.374Z,15.10
2022-08-29T04:10:53.214Z,15.10
2022-08-29T04:13:20.054Z,15.00
2022-08-29T04:15:46.948Z,15.10
2022-08-29T04:18:15.477Z,15.20
2022-08-29T04:20:45.030Z,15.00
2022-08-29T04:23:12.772Z,15.00
2022-08-29T04:25:39.890Z,15.00
2022-08-29T04:28:08.146Z,15.00
2022-08-29T04:30:35.188Z,14.90
2022-08-29T04:33:02.075Z,15.00
2022-08-29T04:35:29.044Z,15.00
2022-08-29T04:37:55.905Z,14.90
2022-08-29T04:40:23.077Z,14.90
2022-08-29T04:42:50.086Z,14.80
2022-08-29T04:45:19.253Z,14.80
2022-08-29T04:47:46.291Z,14.80
2022-08-29T04:50:15.034Z,14.80
2022-08-29T04:52:43.821Z,14.90
2022-08-29T04:55:11.655Z,14.80
2022-08-29T04:57:40.310Z,14.80
2022-08-29T05:00:12.593Z,14.80
2022-08-29T05:02:40.407Z,14.80
2022-08-29T05:05:08.008Z,14.80
2022-08-29T05:07:34.950Z,14.80
2022-08-29T05:10:09.349Z,14.70
2022-08-29T05:12:36.376Z,14.80
2022-08-29T05:15:04.025Z,14.80
2022-08-29T05:17:31.091Z,14.80
2022-08-29T05:19:58.003Z,14.90
2022-08-29T05:22:24.954Z,14.80
2022-08-29T05:24:51.830Z,14.80
2022-08-29T05:27:20.534Z,14.90
2022-08-29T05:29:48.582Z,14.90
2022-08-29T05:32:15.552Z,14.90
2022-08-29T05:34:43.213Z,14.90
2022-08-29T05:37:12.001Z,14.90
2022-08-29T05:39:39.204Z,14.90
2022-08-29T05:42:07.205Z,14.90
2022-08-29T05:44:35.603Z,14.90
2022-08-29T05:47:04.305Z,14.90
2022-08-29T05:49:31.174Z,15.00
2022-08-29T05:51:58.395Z,15.00
2022-08-29T05:54:25.483Z,15.00
2022-08-29T05:56:57.257Z,15.10
2022-08-29T05:59:24.087Z,15.00
2022-08-29T06:01:50.941Z,15.10
2022-08-29T06:04:18.848Z,15.20
2022-08-29T06:06:45.739Z,15.10
2022-08-29T06:09:12.980Z,15.10
2022-08-29T06:11:39.866Z,15.10
2022-08-29T06:14:06.736Z,15.20
2022-08-29T06:16:33.705Z,15.30
2022-08-29T06:19:00.775Z,15.40
2022-08-29T06:21:27.684Z,15.50
2022-08-29T06:23:54.796Z,15.70
2022-08-29T06:26:21.754Z,15.70
2022-08-29T06:28:48.682Z,15.80
2022-08-29T06:31:24.980Z,15.90
2022-08-29T06:33:52.201Z,16.00
2022-08-29T06:36:19.132Z,16.10
2022-08-29T06:38:46.068Z,16.20
2022-08-29T06:41:14.748Z,16.20
2022-08-29T06:43:41.782Z,16.40
2022-08-29T06:46:08.945Z,16.50
2022-08-29T06:48:35.940Z,16.60
2022-08-29T06:51:02.996Z,16.80
2022-08-29T06:53:31.919Z,16.90
2022-08-29T06:56:04.327Z,17.00
2022-08-29T06:58:33.116Z,17.30
2022-08-29T07:01:04.934Z,17.40
2022-08-29T07:03:31.856Z,17.60
2022-08-29T07:05:58.743Z,17.70
2022-08-29T07:08:25.579Z,17.80
2022-08-29T07:10:52.516Z,18.00
2022-08-29T07:13:19.444Z,18.20
2022-08-29T07:15:46.374Z,18.40
2022-08-29T07:18:13.266Z,18.50
2022-08-29T07:20:40.248Z,18.70
2022-08-29T07:23:08.070Z,18.80
2022-08-29T07:25:36.103Z,19.00
2022-08-29T07:28:03.491Z,19.10
2022-08-29T07:30:30.485Z,19.20
2022-08-29T07:32:57.383Z,19.30
2022-08-29T07:35:30.505Z,19.50
2022-08-29T07:37:58.988Z,19.50
2022-08-29T07:40:25.939Z,19.60
2022-08-29T07:42:52.972Z,19.70
2022-08-29T07:45:19.984Z,19.80
2022-08-29T07:47:46.924Z,19.90
2022-08-29T07:50:14.078Z,20.10
2022-08-29T07:52:41.027Z,20.30
2022-08-29T07:55:08.823Z,20.40
2022-08-29T07:57:37.030Z,20.50
2022-08-29T08:00:12.251Z,20.60
2022-08-29T08:02:39.353Z,20.70
2022-08-29T08:05:07.171Z,20.80
2022-08-29T08:07:35.282Z,20.90
2022-08-29T08:10:03.213Z,21.00
2022-08-29T08:12:30.107Z,21.10
2022-08-29T08:14:57.210Z,21.20
2022-08-29T08:17:24.198Z,21.30
2022-08-29T08:19:51.113Z,21.40
2022-08-29T08:22:17.969Z,21.40
2022-08-29T08:24:45.169Z,21.50
2022-08-29T08:27:12.105Z,21.60
2022-08-29T08:29:39.002Z,21.70
2022-08-29T08:32:05.938Z,21.70
2022-08-29T08:34:35.679Z,21.80
2022-08-29T08:37:07.777Z,22.00
2022-08-29T08:39:35.141Z,22.20
2022-08-29T08:42:13.592Z,22.30
2022-08-29T08:44:44.581Z,22.50
2022-08-29T08:47:12.484Z,22.60
2022-08-29T08:49:52.321Z,22.70
2022-08-29T08:52:42.935Z,22.70
2022-08-29T08:55:15.149Z,22.70
2022-08-29T08:57:46.435Z,22.70
2022-08-29T09:00:13.595Z,22.80
2022-08-29T09:03:07.540Z,22.80
2022-08-29T09:06:00.626Z,23.00
2022-08-29T09:08:42.747Z,23.10
2022-08-29T09:11:18.674Z,23.20
2022-08-29T09:13:52.785Z,23.30
2022-08-29T09:16:27.960Z,23.30
2022-08-29T09:19:01.145Z,23.30
2022-08-29T09:21:43.514Z,23.30
2022-08-29T09:24:12.988Z,23.40
2022-08-29T09:26:40.864Z,23.40
2022-08-29T09:29:09.937Z,23.40
2022-08-29T09:31:37.594Z,23.40
2022-08-29T09:34:07.698Z,23.50
2022-08-29T09:36:59.671Z,23.50
2022-08-29T09:39:26.495Z,23.60
2022-08-29T09:42:02.001Z,23.60
2022-08-29T09:44:33.969Z,23.60
2022-08-29T09:47:13.023Z,23.60
2022-08-29T09:49:42.280Z,23.60
2022-08-29T09:52:16.906Z,23.70
2022-08-29T09:54:44.280Z,23.80
2022-08-29T09:57:17.377Z,23.90
2022-08-29T09:59:45.647Z,24.00
2022-08-29T10:02:26.993Z,24.10
2022-08-29T10:04:55.014Z,24.30
2022-08-29T10:07:30.973Z,24.40
2022-08-29T10:10:02.285Z,24.50
2022-08-29T10:12:34.015Z,24.60
2022-08-29T10:15:03.031Z,24.70
2022-08-29T10:17:56.478Z,24.80
2022-08-29T10:20:28.475Z,24.80
2022-08-29T10:23:05.097Z,24.90
2022-08-29T10:25:36.497Z,24.90
2022-08-29T10:28:05.833Z,25.00
2022-08-29T10:30:43.497Z,25.00
2022-08-29T10:33:17.185Z,25.00
2022-08-29T10:36:07.139Z,25.00
2022-08-29T10:38:47.592Z,25.10
2022-08-29T10:41:33.560Z,25.10
2022-08-29T10:47:10.948Z,25.20
2022-08-29T10:49:44.430Z,25.20
2022-08-29T10:52:45.195Z,25.20
2022-08-29T10:55:36.918Z,25.10
2022-08-29T10:58:13.482Z,25.20
2022-08-29T11:00:57.716Z,25.30
2022-08-29T11:03:53.005Z,25.30
2022-08-29T11:06:25.441Z,25.30
2022-08-29T11:09:12.336Z,25.30
2022-08-29T11:11:40.325Z,25.40
2022-08-29T11:14:19.906Z,25.50
2022-08-29T11:16:47.553Z,25.50
2022-08-29T11:19:23.828Z,25.60
2022-08-29T11:21:55.534Z,25.70
2022-08-29T11:24:23.836Z,25.70
2022-08-29T11:26:58.829Z,25.70
2022-08-29T11:29:49.858Z,25.80
2022-08-29T11:32:27.255Z,25.80
2022-08-29T11:35:08.444Z,25.80
2022-08-29T11:37:57.571Z,25.90
2022-08-29T11:41:26.287Z,25.90
2022-08-29T11:43:42.884Z,25.90
2022-08-29T11:46:10.864Z,25.90
2022-08-29T11:48:40.379Z,26.00
2022-08-29T11:51:36.135Z,26.00
2022-08-29T11:54:25.319Z,26.00
2022-08-29T11:57:01.705Z,26.00
2022-08-29T11:59:49.875Z,26.00
2022-08-29T12:02:29.072Z,26.10
2022-08-29T12:04:57.761Z,26.10
2022-08-29T12:07:49.057Z,26.10
2022-08-29T12:10:23.590Z,26.20
2022-08-29T12:12:52.087Z,26.30
2022-08-29T12:15:32.175Z,26.40
2022-08-29T12:18:13.940Z,26.40
2022-08-29T12:20:41.923Z,26.40
2022-08-29T12:23:12.673Z,26.40
2022-08-29T12:26:15.774Z,26.40
2022-08-29T12:28:57.737Z,26.50
2022-08-29T12:32:18.272Z,26.50
2022-08-29T12:34:50.291Z,26.50
2022-08-29T12:37:23.584Z,26.50
2022-08-29T12:39:50.439Z,26.60
2022-08-29T12:42:44.786Z,26.70
2022-08-29T12:45:31.927Z,26.70
2022-08-29T12:48:24.281Z,26.70
2022-08-29T12:50:51.179Z,26.70
2022-08-29T12:53:23.606Z,26.90
2022-08-29T12:55:57.778Z,26.90
2022-08-29T12:58:40.142Z,27.00
2022-08-29T13:01:30.928Z,27.00
2022-08-29T13:04:05.287Z,27.00
2022-08-29T13:06:32.771Z,27.10
2022-08-29T13:09:00.081Z,27.20
2022-08-29T13:11:28.651Z,27.30
2022-08-29T13:14:25.078Z,27.40
2022-08-29T13:16:52.908Z,27.40
2022-08-29T13:19:20.810Z,27.40
2022-08-29T13:21:47.648Z,27.40
2022-08-29T13:24:19.532Z,27.50
2022-08-29T13:27:03.343Z,27.60
2022-08-29T13:29:36.504Z,27.70
2022-08-29T13:32:09.518Z,27.80
2022-08-29T13:34:36.293Z,27.80
2022-08-29T13:37:07.577Z,27.90
2022-08-29T13:39:47.045Z,27.90
2022-08-29T13:42:22.542Z,27.90
2022-08-29T13:44:49.397Z,28.00
2022-08-29T13:47:21.367Z,28.10
2022-08-29T13:49:48.676Z,28.30
2022-08-29T13:52:15.609Z,28.40
2022-08-29T13:54:42.578Z,28.50
2022-08-29T13:57:18.953Z,28.60
2022-08-29T13:59:45.968Z,28.90
2022-08-29T14:02:14.831Z,29.10
2022-08-29T14:04:42.666Z,29.30
2022-08-29T14:07:11.600Z,29.60
2022-08-29T14:09:40.956Z,29.70
2022-08-29T14:12:08.152Z,29.90
2022-08-29T14:14:35.527Z,30.00
2022-08-29T14:17:02.407Z,30.20
2022-08-29T14:19:29.597Z,30.40
2022-08-29T14:21:59.180Z,30.60
2022-08-29T14:24:28.907Z,30.70
2022-08-29T14:27:01.062Z,30.70
2022-08-29T14:29:30.747Z,30.90
2022-08-29T14:31:58.463Z,31.00
2022-08-29T14:34:30.630Z,31.00
2022-08-29T14:36:59.216Z,31.20
2022-08-29T14:39:26.297Z,31.30
2022-08-29T14:41:54.064Z,31.40
2022-08-29T14:44:22.328Z,31.40
2022-08-29T14:46:50.167Z,31.40
2022-08-29T14:49:17.387Z,31.50
2022-08-29T14:51:47.386Z,31.70
2022-08-29T14:54:14.987Z,31.90
2022-08-29T14:56:48.802Z,32.10
2022-08-29T14:59:17.238Z,32.30
2022-08-29T15:01:44.185Z,32.50
2022-08-29T15:04:11.297Z,32.50
2022-08-29T15:06:41.105Z,32.60
2022-08-29T15:09:08.048Z,32.50
2022-08-29T15:11:35.090Z,32.40
2022-08-29T15:14:04.395Z,32.30
2022-08-29T15:16:32.015Z,32.20
2022-08-29T15:19:37.551Z,32.10
2022-08-29T15:21:45.854Z,32.10
2022-08-29T15:24:12.751Z,32.10
2022-08-29T15:26:39.663Z,32.20
2022-08-29T15:29:08.593Z,32.20
2022-08-29T15:31:35.594Z,32.20
2022-08-29T15:34:02.533Z,32.20
2022-08-29T15:36:29.768Z,32.30
2022-08-29T15:38:56.733Z,32.20
2022-08-29T15:41:23.752Z,32.10
2022-08-29T15:43:50.723Z,32.00
2022-08-29T15:46:18.053Z,31.80
2022-08-29T15:48:45.682Z,31.60
2022-08-29T15:51:12.568Z,31.30
2022-08-29T15:53:39.547Z,31.00
2022-08-29T15:56:06.775Z,30.70
2022-08-29T15:58:33.662Z,30.60
2022-08-29T16:01:00.585Z,30.70
2022-08-29T16:03:27.917Z,30.70
2022-08-29T16:05:54.866Z,30.80
2022-08-29T16:08:22.455Z,31.00
2022-08-29T16:10:56.425Z,31.00
2022-08-29T16:13:23.296Z,30.90
2022-08-29T16:15:50.313Z,30.60
2022-08-29T16:18:17.391Z,30.30
2022-08-29T16:20:44.375Z,29.90
2022-08-29T16:23:11.419Z,29.50
2022-08-29T16:25:38.507Z,29.00
2022-08-29T16:28:06.367Z,28.40
2022-08-29T16:30:33.403Z,27.80
2022-08-29T16:33:00.587Z,27.40
2022-08-29T16:35:27.662Z,26.90
2022-08-29T16:38:02.409Z,26.50
2022-08-29T16:40:30.344Z,26.20
2022-08-29T16:42:57.275Z,26.10
2022-08-29T16:45:24.425Z,26.20
2022-08-29T16:47:55.336Z,26.30
2022-08-29T16:50:24.585Z,26.60
2022-08-29T16:57:11.344Z,26.90
2022-08-29T16:59:38.604Z,27.00
2022-08-29T17:02:05.542Z,27.40
2022-08-29T17:04:32.740Z,27.70
2022-08-29T17:07:01.226Z,27.80
2022-08-29T17:09:28.043Z,27.90
2022-08-29T17:11:56.258Z,28.00
2022-08-29T17:14:23.656Z,28.00
2022-08-29T17:16:51.499Z,28.00
2022-08-29T17:19:18.749Z,27.90
2022-08-29T17:21:45.740Z,27.80
2022-08-29T17:24:12.704Z,27.90
2022-08-29T17:26:42.242Z,27.70
2022-08-29T17:29:09.176Z,27.50
2022-08-29T17:31:38.647Z,27.00
2022-08-29T17:34:06.703Z,26.40
2022-08-29T17:36:33.891Z,25.90
2022-08-29T17:39:00.877Z,25.50
2022-08-29T17:41:27.868Z,25.00
2022-08-29T17:43:56.336Z,24.70
2022-08-29T17:46:23.223Z,24.30
2022-08-29T17:48:50.110Z,24.00
2022-08-29T17:51:18.093Z,23.70
2022-08-29T17:53:46.689Z,23.50
2022-08-29T17:56:18.814Z,23.30
2022-08-29T17:58:45.700Z,23.10
2022-08-29T18:01:16.172Z,22.90
2022-08-29T18:03:44.939Z,22.70
2022-08-29T18:06:14.778Z,22.60
2022-08-29T18:08:45.882Z,22.40
2022-08-29T18:11:15.930Z,22.20
2022-08-29T18:13:42.854Z,22.10
2022-08-29T18:16:10.504Z,22.00
2022-08-29T18:18:38.824Z,21.90
2022-08-29T18:21:05.841Z,21.70
2022-08-29T18:23:33.658Z,21.60
2022-08-29T18:26:01.377Z,21.50
2022-08-29T18:28:28.765Z,21.40
2022-08-29T18:30:55.782Z,21.20
2022-08-29T18:33:22.881Z,21.10
2022-08-29T18:35:51.974Z,21.00
2022-08-29T18:38:18.872Z,20.90
2022-08-29T18:40:46.319Z,20.90
2022-08-29T18:43:18.395Z,20.80
2022-08-29T18:45:45.412Z,20.70
2022-08-29T18:48:12.310Z,20.60
2022-08-29T18:50:39.239Z,20.50
2022-08-29T18:53:11.588Z,20.50
2022-08-29T18:55:39.654Z,20.40
2022-08-29T18:58:07.238Z,20.40
2022-08-29T19:00:34.268Z,20.50
2022-08-29T19:03:01.588Z,20.30
2022-08-29T19:05:29.359Z,20.50
2022-08-29T19:07:56.244Z,20.20
2022-08-29T19:10:23.408Z,20.10
2022-08-29T19:12:50.301Z,20.10
2022-08-29T19:15:17.804Z,20.10
2022-08-29T19:17:44.766Z,20.00
2022-08-29T19:20:31.741Z,20.00
2022-08-29T19:22:58.803Z,20.20
2022-08-29T19:25:25.793Z,20.00
2022-08-29T19:27:52.667Z,19.90
2022-08-29T19:30:19.800Z,19.70
2022-08-29T19:32:46.774Z,19.70
2022-08-29T19:35:14.020Z,19.60
2022-08-29T19:37:42.216Z,19.60
2022-08-29T19:40:10.407Z,19.50
2022-08-29T19:42:37.821Z,19.40
2022-08-29T19:45:05.350Z,19.30
2022-08-29T19:47:32.239Z,19.30
2022-08-29T19:49:59.490Z,19.30
2022-08-29T19:52:26.944Z,20.30
2022-08-29T19:54:56.094Z,19.10
2022-08-29T19:57:23.063Z,19.10
2022-08-29T19:59:49.991Z,19.00
2022-08-29T20:02:16.914Z,19.00
2022-08-29T20:04:44.071Z,18.90
2022-08-29T20:07:11.505Z,18.90
2022-08-29T20:09:40.256Z,18.80
2022-08-29T20:12:08.611Z,18.80
2022-08-29T20:14:35.557Z,18.80
2022-08-29T20:17:07.963Z,18.70
2022-08-29T20:19:36.898Z,18.70
2022-08-29T20:22:07.172Z,18.60
2022-08-29T20:24:34.120Z,20.70
2022-08-29T20:27:01.537Z,20.40
2022-08-29T20:29:29.573Z,18.50
2022-08-29T20:31:58.473Z,18.40
2022-08-29T20:34:29.811Z,19.00
2022-08-29T20:37:14.280Z,18.40
2022-08-29T20:39:48.542Z,20.20
2022-08-29T20:42:16.553Z,18.90
2022-08-29T20:44:43.791Z,19.50
2022-08-29T20:47:12.640Z,18.30
2022-08-29T20:49:40.978Z,18.20
2022-08-29T20:52:11.475Z,19.90
2022-08-29T20:54:38.973Z,19.10
2022-08-29T20:57:06.670Z,18.10
2022-08-29T20:59:35.419Z,18.40
2022-08-29T21:02:03.322Z,19.90
2022-08-29T21:04:48.947Z,18.20
2022-08-29T21:07:15.844Z,20.10
2022-08-29T21:09:44.217Z,20.00
2022-08-29T21:12:11.912Z,17.90
2022-08-29T21:14:40.109Z,18.30
2022-08-29T21:17:07.497Z,18.50
2022-08-29T21:19:34.727Z,18.90
2022-08-29T21:22:02.680Z,20.00
2022-08-29T21:24:30.522Z,18.30
2022-08-29T21:26:58.050Z,17.80
2022-08-29T21:29:25.204Z,17.90
2022-08-29T21:31:52.304Z,17.80
2022-08-29T21:34:21.284Z,19.50
2022-08-29T21:36:48.338Z,19.80
2022-08-29T21:39:28.074Z,17.70
2022-08-29T21:41:55.506Z,18.80
2022-08-29T21:44:22.418Z,18.00
2022-08-29T21:46:49.313Z,18.10
2022-08-29T21:49:18.147Z,17.70
2022-08-29T21:51:46.218Z,17.70
2022-08-29T21:54:13.894Z,17.70
2022-08-29T21:56:41.100Z,17.90
2022-08-29T21:59:08.077Z,17.60
2022-08-29T22:01:39.066Z,17.70
2022-08-29T22:04:08.378Z,17.70
2022-08-29T22:06:37.162Z,17.60
2022-08-29T22:09:04.215Z,17.50
2022-08-29T22:11:37.680Z,17.50
2022-08-29T22:14:05.838Z,17.60
2022-08-29T22:16:32.800Z,17.70
2022-08-29T22:19:13.951Z,17.60
2022-08-29T22:21:44.423Z,17.50
2022-08-29T22:24:12.113Z,17.70
2022-08-29T22:26:39.594Z,17.40
2022-08-29T22:29:06.886Z,17.40
2022-08-29T22:31:34.009Z,17.40
2022-08-29T22:34:01.060Z,17.60
2022-08-29T22:36:27.876Z,17.40
2022-08-29T22:38:56.261Z,17.40
2022-08-29T22:41:23.990Z,17.30
2022-08-29T22:44:08.761Z,17.30
2022-08-29T22:46:38.207Z,17.30
2022-08-29T22:49:05.124Z,17.30
2022-08-29T22:51:31.987Z,17.30
2022-08-29T22:54:17.301Z,17.20
2022-08-29T22:56:44.960Z,17.20
2022-08-29T22:59:12.437Z,17.30
2022-08-29T23:01:41.667Z,17.20
2022-08-29T23:04:08.642Z,17.20
2022-08-29T23:06:36.969Z,17.20
2022-08-29T23:09:04.563Z,19.40
2022-08-29T23:11:31.565Z,17.20
2022-08-29T23:13:58.527Z,17.10
2022-08-29T23:16:26.242Z,18.40
2022-08-29T23:18:53.234Z,19.20
2022-08-29T23:21:22.805Z,19.50
2022-08-29T23:23:50.614Z,18.70
2022-08-29T23:26:18.004Z,18.80
2022-08-29T23:28:44.872Z,17.00
2022-08-29T23:31:11.789Z,17.00
2022-08-29T23:33:38.688Z,17.40
2022-08-29T23:36:05.731Z,16.90
2022-08-29T23:38:33.166Z,16.90
2022-08-29T23:41:00.054Z,16.90
2022-08-29T23:43:27.950Z,16.80
2022-08-29T23:45:55.713Z,16.90
2022-08-29T23:48:25.895Z,16.90
2022-08-29T23:50:53.320Z,16.90
2022-08-29T23:53:20.596Z,16.90
2022-08-29T23:55:47.514Z,16.90
2022-08-29T23:58:14.391Z,16.90
